sensor_id;sensor_type;location;lat;lon;timestamp;pressure;altitude;pressure_sealevel;temperature;humidity
75447;BME280;64024;55.820;37.574;2023-12-20T00:01:32;96978.84;;;17.24;47.86
75447;BME280;64024;55.820;37.574;2023-12-20T00:03:58;96983.44;;;17.23;48.17
75447;BME280;64024;55.820;37.574;2023-12-20T00:06:23;96985.31;;;17.23;48.15
75447;BME280;64024;55.820;37.574;2023-12-20T00:08:49;96982.97;;;17.21;48.05
75447;BME280;64024;55.820;37.574;2023-12-20T00:11:15;96984.03;;;17.20;48.37
75447;BME280;64024;55.820;37.574;2023-12-20T00:13:40;96988.63;;;17.20;48.19
75447;BME280;64024;55.820;37.574;2023-12-20T00:16:06;96983.56;;;17.18;48.12
75447;BME280;64024;55.820;37.574;2023-12-20T00:18:32;96982.00;;;17.17;48.25
75447;BME280;64024;55.820;37.574;2023-12-20T00:20:58;96991.13;;;17.16;48.15
75447;BME280;64024;55.820;37.574;2023-12-20T00:23:24;96993.78;;;17.16;48.06
75447;BME280;64024;55.820;37.574;2023-12-20T00:25:50;96996.78;;;17.14;48.13
75447;BME280;64024;55.820;37.574;2023-12-20T00:28:16;97002.97;;;17.15;48.17
75447;BME280;64024;55.820;37.574;2023-12-20T00:30:42;96993.59;;;17.12;47.93
75447;BME280;64024;55.820;37.574;2023-12-20T00:33:08;96997.13;;;17.13;47.94
75447;BME280;64024;55.820;37.574;2023-12-20T00:35:33;96989.34;;;17.11;48.14
75447;BME280;64024;55.820;37.574;2023-12-20T00:37:59;96994.72;;;17.11;47.90
75447;BME280;64024;55.820;37.574;2023-12-20T00:40:25;97005.44;;;17.11;47.99
75447;BME280;64024;55.820;37.574;2023-12-20T00:42:51;97006.56;;;17.10;48.01
75447;BME280;64024;55.820;37.574;2023-12-20T00:45:18;97006.88;;;17.09;47.85
75447;BME280;64024;55.820;37.574;2023-12-20T00:47:44;97014.09;;;17.08;47.86
75447;BME280;64024;55.820;37.574;2023-12-20T00:50:10;97014.41;;;17.07;47.83
75447;BME280;64024;55.820;37.574;2023-12-20T00:52:35;97009.84;;;17.07;47.78
75447;BME280;64024;55.820;37.574;2023-12-20T00:55:01;97001.78;;;17.07;47.77
75447;BME280;64024;55.820;37.574;2023-12-20T00:57:27;96994.34;;;17.04;47.84
75447;BME280;64024;55.820;37.574;2023-12-20T00:59:53;96995.16;;;17.05;47.53
75447;BME280;64024;55.820;37.574;2023-12-20T01:02:19;96988.97;;;17.04;47.60
75447;BME280;64024;55.820;37.574;2023-12-20T01:04:45;96981.25;;;17.03;47.84
75447;BME280;64024;55.820;37.574;2023-12-20T01:07:11;96978.56;;;17.03;47.52
75447;BME280;64024;55.820;37.574;2023-12-20T01:09:37;96970.81;;;17.01;47.59
75447;BME280;64024;55.820;37.574;2023-12-20T01:12:02;96978.88;;;17.01;47.63
75447;BME280;64024;55.820;37.574;2023-12-20T01:14:28;96977.25;;;17.00;47.57
75447;BME280;64024;55.820;37.574;2023-12-20T01:16:54;96964.94;;;16.99;47.45
75447;BME280;64024;55.820;37.574;2023-12-20T01:19:19;96970.31;;;16.99;47.61
75447;BME280;64024;55.820;37.574;2023-12-20T01:21:46;96971.44;;;16.98;47.54
75447;BME280;64024;55.820;37.574;2023-12-20T01:24:11;96962.59;;;16.98;47.56
75447;BME280;64024;55.820;37.574;2023-12-20T01:26:37;96969.06;;;16.97;47.21
75447;BME280;64024;55.820;37.574;2023-12-20T01:29:03;96970.94;;;16.96;47.55
75447;BME280;64024;55.820;37.574;2023-12-20T01:31:28;96963.97;;;16.95;47.31
75447;BME280;64024;55.820;37.574;2023-12-20T01:33:54;96963.19;;;16.95;47.39
75447;BME280;64024;55.820;37.574;2023-12-20T01:36:20;96966.19;;;16.93;47.41
75447;BME280;64024;55.820;37.574;2023-12-20T01:38:46;96956.25;;;16.94;47.38
75447;BME280;64024;55.820;37.574;2023-12-20T01:41:11;96961.09;;;16.92;47.39
75447;BME280;64024;55.820;37.574;2023-12-20T01:43:37;96957.63;;;16.91;47.36
75447;BME280;64024;55.820;37.574;2023-12-20T01:46:03;96946.13;;;16.90;47.25
75447;BME280;64024;55.820;37.574;2023-12-20T01:48:30;96936.47;;;16.89;47.20
75447;BME280;64024;55.820;37.574;2023-12-20T01:51:00;96942.16;;;16.88;47.38
75447;BME280;64024;55.820;37.574;2023-12-20T01:53:27;96939.47;;;16.88;47.06
75447;BME280;64024;55.820;37.574;2023-12-20T01:55:56;96937.09;;;16.86;47.49
75447;BME280;64024;55.820;37.574;2023-12-20T01:58:23;96937.41;;;16.85;47.15
75447;BME280;64024;55.820;37.574;2023-12-20T02:00:50;96940.09;;;16.85;47.33
75447;BME280;64024;55.820;37.574;2023-12-20T02:03:16;96939.28;;;16.84;47.26
75447;BME280;64024;55.820;37.574;2023-12-20T02:05:42;96936.63;;;16.84;47.41
75447;BME280;64024;55.820;37.574;2023-12-20T02:08:08;96946.25;;;16.85;47.31
75447;BME280;64024;55.820;37.574;2023-12-20T02:10:34;96936.47;;;16.89;47.29
75447;BME280;64024;55.820;37.574;2023-12-20T02:13:00;96940.94;;;16.94;47.55
75447;BME280;64024;55.820;37.574;2023-12-20T02:15:26;96924.69;;;16.99;47.52
75447;BME280;64024;55.820;37.574;2023-12-20T02:17:52;96917.81;;;17.07;47.49
75447;BME280;64024;55.820;37.574;2023-12-20T02:20:18;96921.34;;;17.16;47.38
75447;BME280;64024;55.820;37.574;2023-12-20T02:22:43;96899.63;;;17.26;47.16
75447;BME280;64024;55.820;37.574;2023-12-20T02:25:09;96902.34;;;17.35;47.05
75447;BME280;64024;55.820;37.574;2023-12-20T02:27:35;96902.53;;;17.47;47.05
75447;BME280;64024;55.820;37.574;2023-12-20T02:30:01;96916.19;;;17.59;46.90
75447;BME280;64024;55.820;37.574;2023-12-20T02:32:27;96919.38;;;17.70;46.82
75447;BME280;64024;55.820;37.574;2023-12-20T02:34:55;96924.50;;;17.80;46.60
75447;BME280;64024;55.820;37.574;2023-12-20T02:37:21;96922.78;;;17.93;46.35
75447;BME280;64024;55.820;37.574;2023-12-20T02:39:47;96931.34;;;18.04;46.22
75447;BME280;64024;55.820;37.574;2023-12-20T02:42:12;96930.75;;;18.16;45.85
75447;BME280;64024;55.820;37.574;2023-12-20T02:44:38;96923.50;;;18.25;45.77
75447;BME280;64024;55.820;37.574;2023-12-20T02:47:04;96929.97;;;18.32;45.52
75447;BME280;64024;55.820;37.574;2023-12-20T02:49:30;96937.91;;;18.37;45.55
75447;BME280;64024;55.820;37.574;2023-12-20T02:51:56;96931.59;;;18.42;45.34
75447;BME280;64024;55.820;37.574;2023-12-20T02:54:22;96939.81;;;18.46;45.13
75447;BME280;64024;55.820;37.574;2023-12-20T02:56:48;96944.56;;;18.49;45.05
75447;BME280;64024;55.820;37.574;2023-12-20T02:59:14;96934.28;;;18.51;44.83
75447;BME280;64024;55.820;37.574;2023-12-20T03:01:44;96932.06;;;18.53;44.99
75447;BME280;64024;55.820;37.574;2023-12-20T03:04:12;96932.53;;;18.55;44.93
75447;BME280;64024;55.820;37.574;2023-12-20T03:06:38;96929.53;;;18.56;44.65
75447;BME280;64024;55.820;37.574;2023-12-20T03:09:04;96921.94;;;18.58;44.57
75447;BME280;64024;55.820;37.574;2023-12-20T03:11:30;96920.84;;;18.59;44.41
75447;BME280;64024;55.820;37.574;2023-12-20T03:13:56;96924.31;;;18.60;44.54
75447;BME280;64024;55.820;37.574;2023-12-20T03:16:22;96922.41;;;18.60;44.62
75447;BME280;64024;55.820;37.574;2023-12-20T03:18:48;96929.69;;;18.60;44.63
75447;BME280;64024;55.820;37.574;2023-12-20T03:21:14;96933.16;;;18.60;44.70
75447;BME280;64024;55.820;37.574;2023-12-20T03:23:40;96925.09;;;18.60;44.83
75447;BME280;64024;55.820;37.574;2023-12-20T03:26:09;96921.16;;;18.58;44.99
75447;BME280;64024;55.820;37.574;2023-12-20T03:28:38;96930.81;;;18.59;45.13
75447;BME280;64024;55.820;37.574;2023-12-20T03:31:04;96921.16;;;18.58;45.17
75447;BME280;64024;55.820;37.574;2023-12-20T03:33:30;96927.94;;;18.55;45.17
75447;BME280;64024;55.820;37.574;2023-12-20T03:35:56;96932.53;;;18.55;45.27
75447;BME280;64024;55.820;37.574;2023-12-20T03:38:22;96927.47;;;18.53;45.00
75447;BME280;64024;55.820;37.574;2023-12-20T03:40:50;96933.94;;;18.52;45.08
75447;BME280;64024;55.820;37.574;2023-12-20T03:43:16;96928.41;;;18.49;45.22
75447;BME280;64024;55.820;37.574;2023-12-20T03:45:42;96924.47;;;18.46;45.22
75447;BME280;64024;55.820;37.574;2023-12-20T03:48:08;96923.97;;;18.44;45.29
75447;BME280;64024;55.820;37.574;2023-12-20T03:50:35;96937.75;;;18.43;45.36
75447;BME280;64024;55.820;37.574;2023-12-20T03:53:01;96941.56;;;18.42;45.07
75447;BME280;64024;55.820;37.574;2023-12-20T03:55:27;96945.16;;;18.37;45.08
75447;BME280;64024;55.820;37.574;2023-12-20T03:57:52;96945.50;;;18.35;45.16
75447;BME280;64024;55.820;37.574;2023-12-20T04:00:18;96942.34;;;18.33;44.89
75447;BME280;64024;55.820;37.574;2023-12-20T04:02:44;96941.84;;;18.31;45.18
75447;BME280;64024;55.820;37.574;2023-12-20T04:05:10;96929.84;;;18.29;45.04
75447;BME280;64024;55.820;37.574;2023-12-20T04:07:36;96941.22;;;18.26;45.22
75447;BME280;64024;55.820;37.574;2023-12-20T04:10:03;96936.13;;;18.24;45.14
75447;BME280;64024;55.820;37.574;2023-12-20T04:12:29;96935.19;;;18.20;45.08
75447;BME280;64024;55.820;37.574;2023-12-20T04:14:55;96953.53;;;18.18;45.14
75447;BME280;64024;55.820;37.574;2023-12-20T04:17:20;96941.50;;;18.16;45.10
75447;BME280;64024;55.820;37.574;2023-12-20T04:19:51;96940.56;;;18.20;45.16
75447;BME280;64024;55.820;37.574;2023-12-20T04:22:18;96939.91;;;18.14;44.97
75447;BME280;64024;55.820;37.574;2023-12-20T04:24:44;96938.97;;;18.10;45.07
75447;BME280;64024;55.820;37.574;2023-12-20T04:27:10;96952.22;;;18.07;45.09
75447;BME280;64024;55.820;37.574;2023-12-20T04:29:36;96949.38;;;18.03;45.19
75447;BME280;64024;55.820;37.574;2023-12-20T04:32:02;96938.16;;;18.01;45.07
75447;BME280;64024;55.820;37.574;2023-12-20T04:34:28;96953.00;;;17.99;45.30
75447;BME280;64024;55.820;37.574;2023-12-20T04:36:54;96950.97;;;17.96;45.27
75447;BME280;64024;55.820;37.574;2023-12-20T04:39:19;96943.19;;;17.94;45.09
75447;BME280;64024;55.820;37.574;2023-12-20T04:41:45;96958.84;;;17.92;45.07
75447;BME280;64024;55.820;37.574;2023-12-20T04:44:13;96946.81;;;17.89;45.21
75447;BME280;64024;55.820;37.574;2023-12-20T04:46:39;96949.81;;;17.88;45.35
75447;BME280;64024;55.820;37.574;2023-12-20T04:49:05;96960.06;;;17.86;45.24
75447;BME280;64024;55.820;37.574;2023-12-20T04:51:34;96961.50;;;17.83;45.08
75447;BME280;64024;55.820;37.574;2023-12-20T04:54:01;96961.78;;;17.82;45.37
75447;BME280;64024;55.820;37.574;2023-12-20T04:56:27;96958.31;;;17.81;45.37
75447;BME280;64024;55.820;37.574;2023-12-20T04:58:52;96961.31;;;17.80;45.31
75447;BME280;64024;55.820;37.574;2023-12-20T05:01:18;96953.56;;;17.78;45.18
75447;BME280;64024;55.820;37.574;2023-12-20T05:03:44;96954.66;;;17.77;45.66
75447;BME280;64024;55.820;37.574;2023-12-20T05:06:10;96948.00;;;17.75;45.48
75447;BME280;64024;55.820;37.574;2023-12-20T05:08:36;96959.03;;;17.73;45.63
75447;BME280;64024;55.820;37.574;2023-12-20T05:11:02;96955.06;;;17.71;45.48
75447;BME280;64024;55.820;37.574;2023-12-20T05:13:29;96960.78;;;17.69;45.55
75447;BME280;64024;55.820;37.574;2023-12-20T05:15:54;96955.22;;;17.65;45.58
75447;BME280;64024;55.820;37.574;2023-12-20T05:18:21;96962.50;;;17.65;45.64
75447;BME280;64024;55.820;37.574;2023-12-20T05:20:47;96958.22;;;17.64;45.61
75447;BME280;64024;55.820;37.574;2023-12-20T05:23:13;96960.41;;;17.62;45.55
75447;BME280;64024;55.820;37.574;2023-12-20T05:25:39;96961.84;;;17.59;45.63
75447;BME280;64024;55.820;37.574;2023-12-20T05:28:05;96964.03;;;17.57;45.61
75447;BME280;64024;55.820;37.574;2023-12-20T05:30:32;96952.50;;;17.57;45.58
75447;BME280;64024;55.820;37.574;2023-12-20T05:32:58;96943.97;;;17.55;45.54
75447;BME280;64024;55.820;37.574;2023-12-20T05:35:23;96946.16;;;17.53;45.48
75447;BME280;64024;55.820;37.574;2023-12-20T05:37:49;96961.81;;;17.51;45.46
75447;BME280;64024;55.820;37.574;2023-12-20T05:40:15;96955.94;;;17.49;45.43
75447;BME280;64024;55.820;37.574;2023-12-20T05:42:41;96956.25;;;17.47;45.40
75447;BME280;64024;55.820;37.574;2023-12-20T05:45:07;96967.28;;;17.46;45.42
75447;BME280;64024;55.820;37.574;2023-12-20T05:47:33;96957.66;;;17.45;45.40
75447;BME280;64024;55.820;37.574;2023-12-20T05:49:59;96968.72;;;17.43;45.64
75447;BME280;64024;55.820;37.574;2023-12-20T05:52:25;96964.44;;;17.42;45.99
75447;BME280;64024;55.820;37.574;2023-12-20T05:54:51;96970.09;;;17.40;46.09
75447;BME280;64024;55.820;37.574;2023-12-20T05:57:17;96964.25;;;17.38;46.15
75447;BME280;64024;55.820;37.574;2023-12-20T05:59:43;96966.94;;;17.38;46.18
75447;BME280;64024;55.820;37.574;2023-12-20T06:02:08;96955.41;;;17.38;46.43
75447;BME280;64024;55.820;37.574;2023-12-20T06:04:34;96971.03;;;17.36;46.38
75447;BME280;64024;55.820;37.574;2023-12-20T06:07:00;96959.50;;;17.35;46.66
75447;BME280;64024;55.820;37.574;2023-12-20T06:09:29;96961.69;;;17.33;46.71
75447;BME280;64024;55.820;37.574;2023-12-20T06:11:55;96966.28;;;17.33;46.73
75447;BME280;64024;55.820;37.574;2023-12-20T06:14:21;96967.38;;;17.32;46.75
75447;BME280;64024;55.820;37.574;2023-12-20T06:16:47;96976.22;;;17.32;46.94
75447;BME280;64024;55.820;37.574;2023-12-20T06:19:13;96970.38;;;17.30;46.80
75447;BME280;64024;55.820;37.574;2023-12-20T06:21:40;96985.69;;;17.30;46.81
75447;BME280;64024;55.820;37.574;2023-12-20T06:24:06;96971.34;;;17.34;46.84
75447;BME280;64024;55.820;37.574;2023-12-20T06:26:32;96987.75;;;17.33;46.84
75447;BME280;64024;55.820;37.574;2023-12-20T06:28:58;96975.75;;;17.30;46.93
75447;BME280;64024;55.820;37.574;2023-12-20T06:31:24;96970.66;;;17.29;46.86
75447;BME280;64024;55.820;37.574;2023-12-20T06:33:49;96976.34;;;17.27;46.86
75447;BME280;64024;55.820;37.574;2023-12-20T06:36:23;96976.34;;;17.27;46.83
75447;BME280;64024;55.820;37.574;2023-12-20T06:38:50;96972.88;;;17.27;47.13
75447;BME280;64024;55.820;37.574;2023-12-20T06:41:16;96973.19;;;17.25;46.85
75447;BME280;64024;55.820;37.574;2023-12-20T06:43:42;96964.31;;;17.25;46.95
75447;BME280;64024;55.820;37.574;2023-12-20T06:46:09;96972.38;;;17.25;46.83
75447;BME280;64024;55.820;37.574;2023-12-20T06:48:36;96975.88;;;17.25;46.74
75447;BME280;64024;55.820;37.574;2023-12-20T06:51:02;96975.38;;;17.23;46.88
75447;BME280;64024;55.820;37.574;2023-12-20T06:53:28;96976.97;;;17.24;46.87
75447;BME280;64024;55.820;37.574;2023-12-20T06:55:54;96974.59;;;17.23;46.77
75447;BME280;64024;55.820;37.574;2023-12-20T06:58:22;96976.97;;;17.24;46.85
75447;BME280;64024;55.820;37.574;2023-12-20T07:00:48;96979.63;;;17.24;46.84
75447;BME280;64024;55.820;37.574;2023-12-20T07:03:14;96962.75;;;17.24;46.73
75447;BME280;64024;55.820;37.574;2023-12-20T07:05:40;96980.44;;;17.25;46.66
75447;BME280;64024;55.820;37.574;2023-12-20T07:08:06;96981.53;;;17.24;46.69
75447;BME280;64024;55.820;37.574;2023-12-20T07:10:32;96973.47;;;17.24;46.72
75447;BME280;64024;55.820;37.574;2023-12-20T07:12:58;96971.59;;;17.24;46.67
75447;BME280;64024;55.820;37.574;2023-12-20T07:15:24;96967.00;;;17.25;46.54
75447;BME280;64024;55.820;37.574;2023-12-20T07:17:50;96981.53;;;17.24;46.64
75447;BME280;64024;55.820;37.574;2023-12-20T07:20:16;96985.78;;;17.25;46.59
75447;BME280;64024;55.820;37.574;2023-12-20T07:22:42;96977.75;;;17.25;46.79
75447;BME280;64024;55.820;37.574;2023-12-20T07:25:08;96985.78;;;17.25;46.51
75447;BME280;64024;55.820;37.574;2023-12-20T07:27:34;96991.16;;;17.25;46.54
75447;BME280;64024;55.820;37.574;2023-12-20T07:30:00;96994.66;;;17.25;46.55
75447;BME280;64024;55.820;37.574;2023-12-20T07:32:26;96986.63;;;17.25;46.41
75447;BME280;64024;55.820;37.574;2023-12-20T07:34:52;96965.44;;;17.24;46.48
75447;BME280;64024;55.820;37.574;2023-12-20T07:37:19;96998.44;;;17.24;46.65
75447;BME280;64024;55.820;37.574;2023-12-20T07:39:45;96997.34;;;17.25;46.80
75447;BME280;64024;55.820;37.574;2023-12-20T07:42:11;96999.22;;;17.25;46.93
75447;BME280;64024;55.820;37.574;2023-12-20T07:44:37;97008.09;;;17.25;47.14
75447;BME280;64024;55.820;37.574;2023-12-20T07:47:03;97008.09;;;17.25;47.29
75447;BME280;64024;55.820;37.574;2023-12-20T07:49:30;97011.25;;;17.27;47.36
75447;BME280;64024;55.820;37.574;2023-12-20T07:51:56;97017.41;;;17.28;47.40
75447;BME280;64024;55.820;37.574;2023-12-20T07:54:22;97015.22;;;17.30;47.29
75447;BME280;64024;55.820;37.574;2023-12-20T07:56:48;97013.00;;;17.32;47.42
75447;BME280;64024;55.820;37.574;2023-12-20T07:59:14;97013.50;;;17.34;47.44
75447;BME280;64024;55.820;37.574;2023-12-20T08:01:41;97031.22;;;17.35;47.72
75447;BME280;64024;55.820;37.574;2023-12-20T08:04:08;97012.09;;;17.36;47.87
75447;BME280;64024;55.820;37.574;2023-12-20T08:06:37;97009.13;;;17.38;47.65
75447;BME280;64024;55.820;37.574;2023-12-20T08:09:03;97018.75;;;17.39;47.75
75447;BME280;64024;55.820;37.574;2023-12-20T08:11:29;97015.75;;;17.40;47.84
75447;BME280;64024;55.820;37.574;2023-12-20T08:13:55;97022.41;;;17.43;47.86
75447;BME280;64024;55.820;37.574;2023-12-20T08:16:21;97030.16;;;17.45;48.03
75447;BME280;64024;55.820;37.574;2023-12-20T08:18:47;97025.56;;;17.45;47.93
75447;BME280;64024;55.820;37.574;2023-12-20T08:21:13;97019.91;;;17.47;48.04
75447;BME280;64024;55.820;37.574;2023-12-20T08:23:39;97031.91;;;17.49;48.08
75447;BME280;64024;55.820;37.574;2023-12-20T08:26:08;97024.34;;;17.51;48.06
75447;BME280;64024;55.820;37.574;2023-12-20T08:28:34;97019.47;;;17.53;48.00
75447;BME280;64024;55.820;37.574;2023-12-20T08:31:00;97026.44;;;17.54;48.04
75447;BME280;64024;55.820;37.574;2023-12-20T08:33:26;97026.13;;;17.56;48.00
75447;BME280;64024;55.820;37.574;2023-12-20T08:35:52;97018.84;;;17.56;47.86
75447;BME280;64024;55.820;37.574;2023-12-20T08:38:18;97020.44;;;17.57;47.96
75447;BME280;64024;55.820;37.574;2023-12-20T08:40:44;97028.19;;;17.59;47.94
75447;BME280;64024;55.820;37.574;2023-12-20T08:43:10;97009.41;;;17.59;47.63
75447;BME280;64024;55.820;37.574;2023-12-20T08:45:36;97015.56;;;17.59;47.88
75447;BME280;64024;55.820;37.574;2023-12-20T08:48:02;97002.91;;;17.60;47.81
75447;BME280;64024;55.820;37.574;2023-12-20T08:50:29;97011.75;;;17.60;47.78
75447;BME280;64024;55.820;37.574;2023-12-20T08:52:55;97021.41;;;17.61;47.60
75447;BME280;64024;55.820;37.574;2023-12-20T08:55:21;97016.03;;;17.61;47.50
75447;BME280;64024;55.820;37.574;2023-12-20T08:57:48;97017.13;;;17.60;47.67
75447;BME280;64024;55.820;37.574;2023-12-20T09:00:15;97004.50;;;17.61;47.55
75447;BME280;64024;55.820;37.574;2023-12-20T09:02:41;97016.03;;;17.61;47.63
75447;BME280;64024;55.820;37.574;2023-12-20T09:05:08;97013.66;;;17.60;47.50
75447;BME280;64024;55.820;37.574;2023-12-20T09:07:34;97001.03;;;17.60;47.47
75447;BME280;64024;55.820;37.574;2023-12-20T09:10:00;97003.72;;;17.60;47.54
75447;BME280;64024;55.820;37.574;2023-12-20T09:12:26;97007.97;;;17.61;47.52
75447;BME280;64024;55.820;37.574;2023-12-20T09:14:53;96999.44;;;17.59;47.62
75447;BME280;64024;55.820;37.574;2023-12-20T09:17:19;97003.72;;;17.60;47.90
75447;BME280;64024;55.820;37.574;2023-12-20T09:19:49;97017.94;;;17.61;47.62
75447;BME280;64024;55.820;37.574;2023-12-20T09:22:15;97007.19;;;17.61;47.68
75447;BME280;64024;55.820;37.574;2023-12-20T09:24:41;96997.53;;;17.60;47.53
75447;BME280;64024;55.820;37.574;2023-12-20T09:27:08;96999.44;;;17.59;47.67
75447;BME280;64024;55.820;37.574;2023-12-20T09:29:34;96995.66;;;17.60;47.80
75447;BME280;64024;55.820;37.574;2023-12-20T09:32:00;97007.50;;;17.59;47.46
75447;BME280;64024;55.820;37.574;2023-12-20T09:34:26;97005.59;;;17.60;47.47
75447;BME280;64024;55.820;37.574;2023-12-20T09:36:52;97012.88;;;17.59;47.69
75447;BME280;64024;55.820;37.574;2023-12-20T09:39:19;97017.47;;;17.59;47.91
75447;BME280;64024;55.820;37.574;2023-12-20T09:42:01;97019.03;;;17.60;47.69
75447;BME280;64024;55.820;37.574;2023-12-20T09:44:27;97020.16;;;17.59;47.63
75447;BME280;64024;55.820;37.574;2023-12-20T09:46:55;97008.59;;;17.58;47.67
75447;BME280;64024;55.820;37.574;2023-12-20T09:49:24;97013.16;;;17.58;47.55
75447;BME280;64024;55.820;37.574;2023-12-20T09:51:51;97006.22;;;17.57;47.54
75447;BME280;64024;55.820;37.574;2023-12-20T09:54:18;97010.78;;;17.56;47.63
75447;BME280;64024;55.820;37.574;2023-12-20T09:56:44;97013.00;;;17.54;47.44
75447;BME280;64024;55.820;37.574;2023-12-20T09:59:10;97011.91;;;17.55;47.61
75447;BME280;64024;55.820;37.574;2023-12-20T10:01:39;97006.03;;;17.53;47.66
75447;BME280;64024;55.820;37.574;2023-12-20T10:04:07;97008.72;;;17.53;47.50
75447;BME280;64024;55.820;37.574;2023-12-20T10:06:41;97011.72;;;17.52;47.50
75447;BME280;64024;55.820;37.574;2023-12-20T10:09:07;97007.47;;;17.51;47.64
75447;BME280;64024;55.820;37.574;2023-12-20T10:11:38;97006.66;;;17.50;47.33
75447;BME280;64024;55.820;37.574;2023-12-20T10:14:07;97015.81;;;17.49;47.62
75447;BME280;64024;55.820;37.574;2023-12-20T10:16:33;96987.06;;;17.50;47.43
75447;BME280;64024;55.820;37.574;2023-12-20T10:19:00;97006.97;;;17.49;47.42
75447;BME280;64024;55.820;37.574;2023-12-20T10:21:29;97003.47;;;17.48;47.53
75447;BME280;64024;55.820;37.574;2023-12-20T10:23:56;97001.91;;;17.47;47.78
75447;BME280;64024;55.820;37.574;2023-12-20T10:26:24;96995.75;;;17.47;47.51
75447;BME280;64024;55.820;37.574;2023-12-20T10:28:54;97004.59;;;17.47;47.56
75447;BME280;64024;55.820;37.574;2023-12-20T10:31:30;96994.97;;;17.46;47.41
75447;BME280;64024;55.820;37.574;2023-12-20T10:33:57;96994.13;;;17.46;47.43
75447;BME280;64024;55.820;37.574;2023-12-20T10:36:27;97001.13;;;17.47;47.48
75447;BME280;64024;55.820;37.574;2023-12-20T10:38:56;97003.78;;;17.47;47.55
75447;BME280;64024;55.820;37.574;2023-12-20T10:41:29;97004.09;;;17.45;47.60
75447;BME280;64024;55.820;37.574;2023-12-20T10:44:00;97018.00;;;17.47;47.56
75447;BME280;64024;55.820;37.574;2023-12-20T10:46:27;97008.06;;;17.48;47.53
75447;BME280;64024;55.820;37.574;2023-12-20T10:48:58;97011.22;;;17.50;47.73
75447;BME280;64024;55.820;37.574;2023-12-20T10:51:24;97011.22;;;17.50;47.72
75447;BME280;64024;55.820;37.574;2023-12-20T10:53:53;97009.34;;;17.50;47.85
75447;BME280;64024;55.820;37.574;2023-12-20T10:56:20;96996.72;;;17.51;48.08
75447;BME280;64024;55.820;37.574;2023-12-20T10:58:51;96991.53;;;17.54;48.19
75447;BME280;64024;55.820;37.574;2023-12-20T11:01:19;96997.69;;;17.55;47.79
75447;BME280;64024;55.820;37.574;2023-12-20T11:03:52;96992.31;;;17.55;47.88
75447;BME280;64024;55.820;37.574;2023-12-20T11:06:29;96991.22;;;17.56;47.86
75447;BME280;64024;55.820;37.574;2023-12-20T11:09:14;96996.56;;;17.56;47.75
75447;BME280;64024;55.820;37.574;2023-12-20T11:12:02;96978.56;;;17.56;47.94
75447;BME280;64024;55.820;37.574;2023-12-20T11:17:08;96985.03;;;17.55;47.81
75447;BME280;64024;55.820;37.574;2023-12-20T11:22:31;96990.41;;;17.55;48.15
75447;BME280;64024;55.820;37.574;2023-12-20T11:25:08;96989.63;;;17.55;48.36
75447;BME280;64024;55.820;37.574;2023-12-20T11:27:35;96993.09;;;17.55;48.26
75447;BME280;64024;55.820;37.574;2023-12-20T11:30:03;96990.88;;;17.57;48.30
75447;BME280;64024;55.820;37.574;2023-12-20T11:32:35;96997.88;;;17.58;48.23
75447;BME280;64024;55.820;37.574;2023-12-20T11:37:36;96994.72;;;17.65;48.10
75447;BME280;64024;55.820;37.574;2023-12-20T11:40:07;97001.19;;;17.64;48.19
75447;BME280;64024;55.820;37.574;2023-12-20T11:42:45;97003.09;;;17.63;48.22
75447;BME280;64024;55.820;37.574;2023-12-20T11:45:16;97010.38;;;17.63;48.22
75447;BME280;64024;55.820;37.574;2023-12-20T11:47:49;97006.06;;;17.62;48.15
75447;BME280;64024;55.820;37.574;2023-12-20T11:50:16;97002.59;;;17.61;48.22
75447;BME280;64024;55.820;37.574;2023-12-20T11:52:43;97012.56;;;17.61;48.39
75447;BME280;64024;55.820;37.574;2023-12-20T11:55:09;97016.03;;;17.61;48.29
75447;BME280;64024;55.820;37.574;2023-12-20T11:57:36;97003.72;;;17.60;48.25
75447;BME280;64024;55.820;37.574;2023-12-20T12:00:03;97021.72;;;17.60;48.32
75447;BME280;64024;55.820;37.574;2023-12-20T12:02:30;97026.31;;;17.59;48.38
75447;BME280;64024;55.820;37.574;2023-12-20T12:04:56;97015.56;;;17.59;48.16
75447;BME280;64024;55.820;37.574;2023-12-20T12:07:24;97013.97;;;17.58;48.31
75447;BME280;64024;55.820;37.574;2023-12-20T12:09:50;97016.66;;;17.58;48.38
75447;BME280;64024;55.820;37.574;2023-12-20T12:12:17;97007.78;;;17.58;48.39
75447;BME280;64024;55.820;37.574;2023-12-20T12:14:46;97023.13;;;17.57;48.38
75447;BME280;64024;55.820;37.574;2023-12-20T12:17:15;97027.69;;;17.57;48.27
75447;BME280;64024;55.820;37.574;2023-12-20T12:19:41;97034.19;;;17.56;48.30
75447;BME280;64024;55.820;37.574;2023-12-20T12:22:09;97032.28;;;17.56;48.32
75447;BME280;64024;55.820;37.574;2023-12-20T12:24:48;97037.66;;;17.56;48.34
75447;BME280;64024;55.820;37.574;2023-12-20T12:27:15;97043.34;;;17.55;48.26
75447;BME280;64024;55.820;37.574;2023-12-20T12:30:03;97039.53;;;17.56;48.61
75447;BME280;64024;55.820;37.574;2023-12-20T12:32:29;97040.66;;;17.55;48.60
75447;BME280;64024;55.820;37.574;2023-12-20T12:34:55;97036.06;;;17.55;48.66
75447;BME280;64024;55.820;37.574;2023-12-20T12:37:20;97050.59;;;17.54;48.78
75447;BME280;64024;55.820;37.574;2023-12-20T12:39:49;97057.25;;;17.57;48.85
75447;BME280;64024;55.820;37.574;2023-12-20T12:42:16;97061.50;;;17.58;48.89
75447;BME280;64024;55.820;37.574;2023-12-20T12:44:42;97062.78;;;17.60;49.07
75447;BME280;64024;55.820;37.574;2023-12-20T12:47:08;97058.41;;;17.64;49.31
75447;BME280;64024;55.820;37.574;2023-12-20T12:49:33;97069.31;;;17.68;49.46
75447;BME280;64024;55.820;37.574;2023-12-20T12:51:59;97073.78;;;17.73;49.38
75447;BME280;64024;55.820;37.574;2023-12-20T12:54:25;97070.97;;;17.78;49.00
75447;BME280;64024;55.820;37.574;2023-12-20T12:56:51;97073.84;;;17.81;49.41